sensor_id;sensor_type;location;lat;lon;timestamp;P1;durP1;ratioP1;P2;durP2;ratioP2
22138;SDS011;25815;52.582;13.408;2022-07-06T00:01:31;3.40;;;0.75;;
22138;SDS011;25815;52.582;13.408;2022-07-06T00:03:57;4.20;;;0.60;;
22138;SDS011;25815;52.582;13.408;2022-07-06T00:06:23;3.30;;;0.70;;
22138;SDS011;25815;52.582;13.408;2022-07-06T00:08:49;0.75;;;0.47;;
22138;SDS011;25815;52.582;13.408;2022-07-06T00:11:15;1.33;;;0.60;;
22138;SDS011;25815;52.582;13.408;2022-07-06T00:13:41;2.00;;;0.50;;
22138;SDS011;25815;52.582;13.408;2022-07-06T00:16:07;3.50;;;0.60;;
22138;SDS011;25815;52.582;13.408;2022-07-06T00:18:33;5.72;;;0.60;;
22138;SDS011;25815;52.582;13.408;2022-07-06T00:20:59;2.92;;;0.50;;
22138;SDS011;25815;52.582;13.408;2022-07-06T00:23:25;4.53;;;0.73;;
22138;SDS011;25815;52.582;13.408;2022-07-06T00:25:51;2.90;;;0.98;;
22138;SDS011;25815;52.582;13.408;2022-07-06T00:28:17;1.60;;;0.45;;
22138;SDS011;25815;52.582;13.408;2022-07-06T00:30:43;3.75;;;0.47;;
22138;SDS011;25815;52.582;13.408;2022-07-06T00:33:09;2.90;;;0.65;;
22138;SDS011;25815;52.582;13.408;2022-07-06T00:35:35;0.98;;;0.40;;
22138;SDS011;25815;52.582;13.408;2022-07-06T00:38:01;2.72;;;0.60;;
22138;SDS011;25815;52.582;13.408;2022-07-06T00:40:27;2.42;;;0.52;;
22138;SDS011;25815;52.582;13.408;2022-07-06T00:42:54;1.88;;;0.55;;
22138;SDS011;25815;52.582;13.408;2022-07-06T00:45:20;1.80;;;0.55;;
22138;SDS011;25815;52.582;13.408;2022-07-06T00:47:46;2.47;;;0.70;;
22138;SDS011;25815;52.582;13.408;2022-07-06T00:50:13;2.92;;;0.80;;
22138;SDS011;25815;52.582;13.408;2022-07-06T00:52:55;0.82;;;0.60;;
22138;SDS011;25815;52.582;13.408;2022-07-06T00:55:25;1.67;;;0.50;;
22138;SDS011;25815;52.582;13.408;2022-07-06T00:57:52;3.65;;;0.80;;
22138;SDS011;25815;52.582;13.408;2022-07-06T01:00:19;2.88;;;0.80;;
22138;SDS011;25815;52.582;13.408;2022-07-06T01:02:45;2.88;;;0.73;;
22138;SDS011;25815;52.582;13.408;2022-07-06T01:05:12;1.55;;;0.77;;
22138;SDS011;25815;52.582;13.408;2022-07-06T01:07:39;2.75;;;0.90;;
22138;SDS011;25815;52.582;13.408;2022-07-06T01:10:05;2.42;;;0.80;;
22138;SDS011;25815;52.582;13.408;2022-07-06T01:12:31;2.35;;;0.70;;
22138;SDS011;25815;52.582;13.408;2022-07-06T01:14:59;2.17;;;0.63;;
22138;SDS011;25815;52.582;13.408;2022-07-06T01:17:25;3.60;;;0.80;;
22138;SDS011;25815;52.582;13.408;2022-07-06T01:19:51;1.70;;;0.60;;
22138;SDS011;25815;52.582;13.408;2022-07-06T01:22:17;2.47;;;0.63;;
22138;SDS011;25815;52.582;13.408;2022-07-06T01:24:44;3.63;;;0.70;;
22138;SDS011;25815;52.582;13.408;2022-07-06T01:27:10;4.25;;;0.75;;
22138;SDS011;25815;52.582;13.408;2022-07-06T01:29:36;3.00;;;0.70;;
22138;SDS011;25815;52.582;13.408;2022-07-06T01:32:02;1.83;;;0.60;;
22138;SDS011;25815;52.582;13.408;2022-07-06T01:34:28;3.67;;;0.68;;
22138;SDS011;25815;52.582;13.408;2022-07-06T01:36:54;2.05;;;0.50;;
22138;SDS011;25815;52.582;13.408;2022-07-06T01:39:20;3.40;;;0.75;;
22138;SDS011;25815;52.582;13.408;2022-07-06T01:41:46;1.38;;;0.60;;
22138;SDS011;25815;52.582;13.408;2022-07-06T01:44:12;2.22;;;0.63;;
22138;SDS011;25815;52.582;13.408;2022-07-06T01:46:38;2.95;;;0.65;;
22138;SDS011;25815;52.582;13.408;2022-07-06T01:49:04;3.25;;;0.68;;
22138;SDS011;25815;52.582;13.408;2022-07-06T01:51:30;3.10;;;0.73;;
22138;SDS011;25815;52.582;13.408;2022-07-06T01:53:57;1.42;;;0.68;;
22138;SDS011;25815;52.582;13.408;2022-07-06T01:56:23;2.22;;;0.63;;
22138;SDS011;25815;52.582;13.408;2022-07-06T01:58:49;2.55;;;0.70;;
22138;SDS011;25815;52.582;13.408;2022-07-06T02:01:16;2.50;;;1.08;;
22138;SDS011;25815;52.582;13.408;2022-07-06T02:03:43;2.88;;;0.77;;
22138;SDS011;25815;52.582;13.408;2022-07-06T02:06:09;3.60;;;0.70;;
22138;SDS011;25815;52.582;13.408;2022-07-06T02:08:36;2.65;;;0.70;;
22138;SDS011;25815;52.582;13.408;2022-07-06T02:11:03;3.58;;;0.85;;
22138;SDS011;25815;52.582;13.408;2022-07-06T02:13:29;2.72;;;1.05;;
22138;SDS011;25815;52.582;13.408;2022-07-06T02:15:55;8.65;;;0.93;;
22138;SDS011;25815;52.582;13.408;2022-07-06T02:18:21;4.05;;;0.70;;
22138;SDS011;25815;52.582;13.408;2022-07-06T02:20:46;1.67;;;0.70;;
22138;SDS011;25815;52.582;13.408;2022-07-06T02:23:13;2.75;;;0.70;;
22138;SDS011;25815;52.582;13.408;2022-07-06T02:25:38;3.28;;;0.77;;
22138;SDS011;25815;52.582;13.408;2022-07-06T02:28:04;2.55;;;0.60;;
22138;SDS011;25815;52.582;13.408;2022-07-06T02:30:30;4.47;;;1.02;;
22138;SDS011;25815;52.582;13.408;2022-07-06T02:32:56;3.17;;;1.23;;
22138;SDS011;25815;52.582;13.408;2022-07-06T02:35:22;6.85;;;1.00;;
22138;SDS011;25815;52.582;13.408;2022-07-06T02:37:48;5.25;;;1.15;;
22138;SDS011;25815;52.582;13.408;2022-07-06T02:40:14;3.55;;;1.30;;
22138;SDS011;25815;52.582;13.408;2022-07-06T02:42:40;3.65;;;1.20;;
22138;SDS011;25815;52.582;13.408;2022-07-06T02:45:06;2.00;;;1.00;;
22138;SDS011;25815;52.582;13.408;2022-07-06T02:47:32;4.50;;;1.30;;
22138;SDS011;25815;52.582;13.408;2022-07-06T02:49:58;5.05;;;1.30;;
22138;SDS011;25815;52.582;13.408;2022-07-06T02:52:24;3.33;;;1.20;;
22138;SDS011;25815;52.582;13.408;2022-07-06T02:54:50;5.05;;;1.58;;
22138;SDS011;25815;52.582;13.408;2022-07-06T02:57:16;7.95;;;1.30;;
22138;SDS011;25815;52.582;13.408;2022-07-06T02:59:42;3.50;;;1.30;;
22138;SDS011;25815;52.582;13.408;2022-07-06T03:02:09;3.45;;;1.30;;
22138;SDS011;25815;52.582;13.408;2022-07-06T03:04:34;5.43;;;1.40;;
22138;SDS011;25815;52.582;13.408;2022-07-06T03:07:00;3.60;;;1.20;;
22138;SDS011;25815;52.582;13.408;2022-07-06T03:09:27;3.15;;;1.15;;
22138;SDS011;25815;52.582;13.408;2022-07-06T03:11:52;2.72;;;1.38;;
22138;SDS011;25815;52.582;13.408;2022-07-06T03:14:18;4.97;;;1.55;;
22138;SDS011;25815;52.582;13.408;2022-07-06T03:16:44;4.78;;;1.13;;
22138;SDS011;25815;52.582;13.408;2022-07-06T03:19:10;3.60;;;1.30;;
22138;SDS011;25815;52.582;13.408;2022-07-06T03:21:36;3.90;;;1.27;;
22138;SDS011;25815;52.582;13.408;2022-07-06T03:24:03;2.85;;;1.25;;
22138;SDS011;25815;52.582;13.408;2022-07-06T03:26:29;4.22;;;1.20;;
22138;SDS011;25815;52.582;13.408;2022-07-06T03:28:55;4.30;;;1.10;;
22138;SDS011;25815;52.582;13.408;2022-07-06T03:31:21;5.30;;;1.48;;
22138;SDS011;25815;52.582;13.408;2022-07-06T03:33:46;5.32;;;1.50;;
22138;SDS011;25815;52.582;13.408;2022-07-06T03:36:12;5.10;;;1.60;;
22138;SDS011;25815;52.582;13.408;2022-07-06T03:38:38;4.55;;;1.55;;
22138;SDS011;25815;52.582;13.408;2022-07-06T03:41:04;5.50;;;1.10;;
22138;SDS011;25815;52.582;13.408;2022-07-06T03:43:30;4.95;;;1.10;;
22138;SDS011;25815;52.582;13.408;2022-07-06T03:45:56;4.68;;;1.20;;
22138;SDS011;25815;52.582;13.408;2022-07-06T03:48:22;3.65;;;1.33;;
22138;SDS011;25815;52.582;13.408;2022-07-06T03:50:48;6.50;;;1.35;;
22138;SDS011;25815;52.582;13.408;2022-07-06T03:53:14;4.25;;;1.40;;
22138;SDS011;25815;52.582;13.408;2022-07-06T03:55:40;3.58;;;1.40;;
22138;SDS011;25815;52.582;13.408;2022-07-06T03:58:06;6.28;;;1.85;;
22138;SDS011;25815;52.582;13.408;2022-07-06T04:00:32;4.05;;;1.60;;
22138;SDS011;25815;52.582;13.408;2022-07-06T04:02:59;4.63;;;1.60;;
22138;SDS011;25815;52.582;13.408;2022-07-06T04:05:25;4.57;;;1.70;;
22138;SDS011;25815;52.582;13.408;2022-07-06T04:07:51;4.40;;;1.52;;
22138;SDS011;25815;52.582;13.408;2022-07-06T04:10:17;4.25;;;1.67;;
22138;SDS011;25815;52.582;13.408;2022-07-06T04:12:43;7.38;;;1.85;;
22138;SDS011;25815;52.582;13.408;2022-07-06T04:15:10;3.28;;;1.23;;
22138;SDS011;25815;52.582;13.408;2022-07-06T04:17:36;6.40;;;1.75;;
22138;SDS011;25815;52.582;13.408;2022-07-06T04:20:17;3.35;;;1.50;;
22138;SDS011;25815;52.582;13.408;2022-07-06T04:22:43;6.88;;;1.80;;
22138;SDS011;25815;52.582;13.408;2022-07-06T04:25:10;4.78;;;1.67;;
22138;SDS011;25815;52.582;13.408;2022-07-06T04:27:35;9.43;;;2.00;;
22138;SDS011;25815;52.582;13.408;2022-07-06T04:30:02;10.73;;;1.98;;
22138;SDS011;25815;52.582;13.408;2022-07-06T04:32:28;2.70;;;1.30;;
22138;SDS011;25815;52.582;13.408;2022-07-06T04:34:54;5.35;;;1.55;;
22138;SDS011;25815;52.582;13.408;2022-07-06T04:37:20;3.17;;;1.15;;
22138;SDS011;25815;52.582;13.408;2022-07-06T04:39:46;3.20;;;0.80;;
22138;SDS011;25815;52.582;13.408;2022-07-06T04:42:12;7.07;;;1.42;;
22138;SDS011;25815;52.582;13.408;2022-07-06T04:44:38;4.93;;;1.10;;
22138;SDS011;25815;52.582;13.408;2022-07-06T04:47:04;2.95;;;0.90;;
22138;SDS011;25815;52.582;13.408;2022-07-06T04:49:30;3.53;;;1.08;;
22138;SDS011;25815;52.582;13.408;2022-07-06T04:51:56;5.20;;;0.82;;
22138;SDS011;25815;52.582;13.408;2022-07-06T04:54:22;3.63;;;1.10;;
22138;SDS011;25815;52.582;13.408;2022-07-06T04:56:48;4.90;;;1.63;;
22138;SDS011;25815;52.582;13.408;2022-07-06T04:59:14;3.33;;;1.08;;
22138;SDS011;25815;52.582;13.408;2022-07-06T05:01:40;3.63;;;1.10;;
22138;SDS011;25815;52.582;13.408;2022-07-06T05:04:06;3.20;;;0.90;;
22138;SDS011;25815;52.582;13.408;2022-07-06T05:06:32;5.68;;;1.25;;
22138;SDS011;25815;52.582;13.408;2022-07-06T05:08:58;3.25;;;0.98;;
22138;SDS011;25815;52.582;13.408;2022-07-06T05:11:27;5.43;;;1.30;;
22138;SDS011;25815;52.582;13.408;2022-07-06T05:13:53;6.97;;;1.40;;
22138;SDS011;25815;52.582;13.408;2022-07-06T05:16:19;5.15;;;1.35;;
22138;SDS011;25815;52.582;13.408;2022-07-06T05:18:46;4.60;;;1.48;;
22138;SDS011;25815;52.582;13.408;2022-07-06T05:21:11;3.88;;;1.27;;
22138;SDS011;25815;52.582;13.408;2022-07-06T05:23:37;3.75;;;0.93;;
22138;SDS011;25815;52.582;13.408;2022-07-06T05:26:03;3.78;;;1.00;;
22138;SDS011;25815;52.582;13.408;2022-07-06T05:28:29;5.25;;;1.52;;
22138;SDS011;25815;52.582;13.408;2022-07-06T05:30:55;3.15;;;0.90;;
22138;SDS011;25815;52.582;13.408;2022-07-06T05:33:21;2.58;;;1.10;;
22138;SDS011;25815;52.582;13.408;2022-07-06T05:35:47;5.30;;;1.00;;
22138;SDS011;25815;52.582;13.408;2022-07-06T05:38:13;3.17;;;0.85;;
22138;SDS011;25815;52.582;13.408;2022-07-06T05:40:39;6.32;;;1.10;;
22138;SDS011;25815;52.582;13.408;2022-07-06T05:43:05;4.25;;;1.00;;
22138;SDS011;25815;52.582;13.408;2022-07-06T05:45:31;7.38;;;1.30;;
22138;SDS011;25815;52.582;13.408;2022-07-06T05:47:57;2.42;;;0.88;;
22138;SDS011;25815;52.582;13.408;2022-07-06T05:50:41;4.70;;;0.90;;
22138;SDS011;25815;52.582;13.408;2022-07-06T05:53:07;4.53;;;0.90;;
22138;SDS011;25815;52.582;13.408;2022-07-06T05:55:33;5.60;;;0.90;;
22138;SDS011;25815;52.582;13.408;2022-07-06T05:57:59;2.13;;;0.82;;
22138;SDS011;25815;52.582;13.408;2022-07-06T06:00:26;4.53;;;1.10;;
22138;SDS011;25815;52.582;13.408;2022-07-06T06:02:52;3.85;;;0.88;;
22138;SDS011;25815;52.582;13.408;2022-07-06T06:05:18;5.45;;;1.10;;
22138;SDS011;25815;52.582;13.408;2022-07-06T06:07:45;5.78;;;1.30;;
22138;SDS011;25815;52.582;13.408;2022-07-06T06:10:13;2.85;;;1.20;;
22138;SDS011;25815;52.582;13.408;2022-07-06T06:12:39;2.70;;;1.10;;
22138;SDS011;25815;52.582;13.408;2022-07-06T06:15:06;3.15;;;1.13;;
22138;SDS011;25815;52.582;13.408;2022-07-06T06:17:32;6.10;;;1.40;;
22138;SDS011;25815;52.582;13.408;2022-07-06T06:19:58;6.18;;;1.80;;
22138;SDS011;25815;52.582;13.408;2022-07-06T06:22:25;7.95;;;1.60;;
22138;SDS011;25815;52.582;13.408;2022-07-06T06:24:51;3.80;;;1.10;;
22138;SDS011;25815;52.582;13.408;2022-07-06T06:27:17;6.40;;;1.27;;
22138;SDS011;25815;52.582;13.408;2022-07-06T06:29:43;6.22;;;1.75;;
22138;SDS011;25815;52.582;13.408;2022-07-06T06:32:10;5.07;;;1.25;;
22138;SDS011;25815;52.582;13.408;2022-07-06T06:34:36;4.60;;;1.45;;
22138;SDS011;25815;52.582;13.408;2022-07-06T06:37:02;9.02;;;1.80;;
22138;SDS011;25815;52.582;13.408;2022-07-06T06:39:28;5.10;;;1.33;;
22138;SDS011;25815;52.582;13.408;2022-07-06T06:41:54;4.07;;;1.00;;
22138;SDS011;25815;52.582;13.408;2022-07-06T06:44:20;5.03;;;1.20;;
22138;SDS011;25815;52.582;13.408;2022-07-06T06:46:48;4.90;;;1.63;;
22138;SDS011;25815;52.582;13.408;2022-07-06T06:49:14;4.80;;;1.00;;
22138;SDS011;25815;52.582;13.408;2022-07-06T06:51:40;6.68;;;1.13;;
22138;SDS011;25815;52.582;13.408;2022-07-06T06:54:05;5.05;;;1.20;;
22138;SDS011;25815;52.582;13.408;2022-07-06T06:56:31;5.80;;;1.40;;
22138;SDS011;25815;52.582;13.408;2022-07-06T06:58:57;3.08;;;1.20;;
22138;SDS011;25815;52.582;13.408;2022-07-06T07:01:23;4.20;;;1.25;;
22138;SDS011;25815;52.582;13.408;2022-07-06T07:03:50;5.35;;;1.13;;
22138;SDS011;25815;52.582;13.408;2022-07-06T07:06:17;8.15;;;1.58;;
22138;SDS011;25815;52.582;13.408;2022-07-06T07:08:42;4.35;;;1.40;;
22138;SDS011;25815;52.582;13.408;2022-07-06T07:11:08;6.07;;;0.98;;
22138;SDS011;25815;52.582;13.408;2022-07-06T07:13:34;2.55;;;1.00;;
22138;SDS011;25815;52.582;13.408;2022-07-06T07:16:00;4.00;;;1.00;;
22138;SDS011;25815;52.582;13.408;2022-07-06T07:18:26;2.90;;;1.02;;
22138;SDS011;25815;52.582;13.408;2022-07-06T07:20:52;4.82;;;1.33;;
22138;SDS011;25815;52.582;13.408;2022-07-06T07:23:18;4.43;;;1.33;;
22138;SDS011;25815;52.582;13.408;2022-07-06T07:25:44;4.25;;;0.82;;
22138;SDS011;25815;52.582;13.408;2022-07-06T07:28:10;4.90;;;1.15;;
22138;SDS011;25815;52.582;13.408;2022-07-06T07:30:36;2.22;;;0.80;;
22138;SDS011;25815;52.582;13.408;2022-07-06T07:33:02;7.05;;;1.08;;
22138;SDS011;25815;52.582;13.408;2022-07-06T07:35:28;3.97;;;1.20;;
22138;SDS011;25815;52.582;13.408;2022-07-06T07:37:54;3.08;;;0.93;;
22138;SDS011;25815;52.582;13.408;2022-07-06T07:40:19;2.97;;;0.65;;
22138;SDS011;25815;52.582;13.408;2022-07-06T07:42:46;3.90;;;0.98;;
22138;SDS011;25815;52.582;13.408;2022-07-06T07:45:12;2.88;;;0.60;;
22138;SDS011;25815;52.582;13.408;2022-07-06T07:47:38;5.60;;;0.70;;
22138;SDS011;25815;52.582;13.408;2022-07-06T07:50:05;7.43;;;0.95;;
22138;SDS011;25815;52.582;13.408;2022-07-06T07:52:31;1.83;;;0.68;;
22138;SDS011;25815;52.582;13.408;2022-07-06T07:54:57;3.63;;;0.70;;
22138;SDS011;25815;52.582;13.408;2022-07-06T07:57:24;7.68;;;0.80;;
22138;SDS011;25815;52.582;13.408;2022-07-06T07:59:50;3.35;;;0.70;;
22138;SDS011;25815;52.582;13.408;2022-07-06T08:02:16;2.70;;;0.90;;
22138;SDS011;25815;52.582;13.408;2022-07-06T08:04:42;3.35;;;0.70;;
22138;SDS011;25815;52.582;13.408;2022-07-06T08:07:08;2.40;;;1.10;;
22138;SDS011;25815;52.582;13.408;2022-07-06T08:09:34;4.18;;;0.90;;
22138;SDS011;25815;52.582;13.408;2022-07-06T08:12:00;4.90;;;0.63;;
22138;SDS011;25815;52.582;13.408;2022-07-06T08:14:26;3.22;;;0.60;;
22138;SDS011;25815;52.582;13.408;2022-07-06T08:16:52;2.08;;;0.50;;
22138;SDS011;25815;52.582;13.408;2022-07-06T08:19:18;4.95;;;0.65;;
22138;SDS011;25815;52.582;13.408;2022-07-06T08:21:44;3.83;;;0.60;;
22138;SDS011;25815;52.582;13.408;2022-07-06T08:24:10;2.22;;;0.88;;
22138;SDS011;25815;52.582;13.408;2022-07-06T08:26:36;3.47;;;0.60;;
22138;SDS011;25815;52.582;13.408;2022-07-06T08:29:02;4.65;;;0.60;;
22138;SDS011;25815;52.582;13.408;2022-07-06T08:31:28;4.63;;;0.70;;
22138;SDS011;25815;52.582;13.408;2022-07-06T08:33:54;3.10;;;0.57;;
22138;SDS011;25815;52.582;13.408;2022-07-06T08:36:21;2.65;;;0.50;;
22138;SDS011;25815;52.582;13.408;2022-07-06T08:38:47;3.90;;;0.50;;
22138;SDS011;25815;52.582;13.408;2022-07-06T08:41:16;3.75;;;0.43;;
22138;SDS011;25815;52.582;13.408;2022-07-06T08:43:42;4.85;;;0.65;;
22138;SDS011;25815;52.582;13.408;2022-07-06T08:46:09;2.92;;;0.60;;
22138;SDS011;25815;52.582;13.408;2022-07-06T08:48:35;3.33;;;0.57;;
22138;SDS011;25815;52.582;13.408;2022-07-06T08:51:02;4.20;;;0.52;;
22138;SDS011;25815;52.582;13.408;2022-07-06T08:53:28;1.77;;;0.50;;
22138;SDS011;25815;52.582;13.408;2022-07-06T08:55:54;1.50;;;0.50;;
22138;SDS011;25815;52.582;13.408;2022-07-06T08:58:20;1.73;;;0.50;;
22138;SDS011;25815;52.582;13.408;2022-07-06T09:00:49;0.55;;;0.30;;
22138;SDS011;25815;52.582;13.408;2022-07-06T09:03:15;2.38;;;0.60;;
22138;SDS011;25815;52.582;13.408;2022-07-06T09:05:41;2.60;;;0.50;;
22138;SDS011;25815;52.582;13.408;2022-07-06T09:08:08;4.32;;;0.77;;
22138;SDS011;25815;52.582;13.408;2022-07-06T09:10:33;2.05;;;0.50;;
22138;SDS011;25815;52.582;13.408;2022-07-06T09:13:03;2.40;;;0.45;;
22138;SDS011;25815;52.582;13.408;2022-07-06T09:17:55;2.88;;;0.43;;
22138;SDS011;25815;52.582;13.408;2022-07-06T09:20:22;0.80;;;0.30;;
22138;SDS011;25815;52.582;13.408;2022-07-06T09:22:48;5.55;;;0.40;;
22138;SDS011;25815;52.582;13.408;2022-07-06T09:25:15;2.75;;;0.30;;
22138;SDS011;25815;52.582;13.408;2022-07-06T09:27:46;0.98;;;0.35;;
22138;SDS011;25815;52.582;13.408;2022-07-06T09:30:12;3.80;;;1.52;;
22138;SDS011;25815;52.582;13.408;2022-07-06T09:32:40;2.25;;;0.30;;
22138;SDS011;25815;52.582;13.408;2022-07-06T09:35:06;2.92;;;0.50;;
22138;SDS011;25815;52.582;13.408;2022-07-06T09:37:32;1.35;;;0.40;;
22138;SDS011;25815;52.582;13.408;2022-07-06T09:39:58;3.63;;;0.50;;
22138;SDS011;25815;52.582;13.408;2022-07-06T09:42:25;5.10;;;0.47;;
22138;SDS011;25815;52.582;13.408;2022-07-06T09:44:51;2.97;;;0.40;;
22138;SDS011;25815;52.582;13.408;2022-07-06T09:47:17;4.90;;;0.70;;
22138;SDS011;25815;52.582;13.408;2022-07-06T09:49:44;3.45;;;0.70;;
22138;SDS011;25815;52.582;13.408;2022-07-06T09:52:11;1.95;;;0.32;;
22138;SDS011;25815;52.582;13.408;2022-07-06T09:54:38;1.92;;;0.47;;
22138;SDS011;25815;52.582;13.408;2022-07-06T09:57:05;2.65;;;0.30;;
22138;SDS011;25815;52.582;13.408;2022-07-06T09:59:32;2.95;;;0.40;;
22138;SDS011;25815;52.582;13.408;2022-07-06T10:01:59;1.40;;;0.30;;
22138;SDS011;25815;52.582;13.408;2022-07-06T10:04:26;3.75;;;0.45;;
22138;SDS011;25815;52.582;13.408;2022-07-06T10:06:52;5.05;;;0.40;;
22138;SDS011;25815;52.582;13.408;2022-07-06T10:09:19;4.03;;;0.55;;
22138;SDS011;25815;52.582;13.408;2022-07-06T10:14:11;2.55;;;0.60;;
22138;SDS011;25815;52.582;13.408;2022-07-06T10:16:38;2.95;;;0.45;;
22138;SDS011;25815;52.582;13.408;2022-07-06T10:19:05;2.20;;;0.60;;
22138;SDS011;25815;52.582;13.408;2022-07-06T10:21:32;1.70;;;0.40;;
22138;SDS011;25815;52.582;13.408;2022-07-06T10:23:58;1.98;;;0.60;;
22138;SDS011;25815;52.582;13.408;2022-07-06T10:26:25;4.68;;;0.52;;
22138;SDS011;25815;52.582;13.408;2022-07-06T10:28:51;2.08;;;0.50;;
22138;SDS011;25815;52.582;13.408;2022-07-06T10:31:17;2.28;;;0.52;;
22138;SDS011;25815;52.582;13.408;2022-07-06T10:33:44;4.22;;;0.40;;
22138;SDS011;25815;52.582;13.408;2022-07-06T10:36:10;2.30;;;0.28;;
22138;SDS011;25815;52.582;13.408;2022-07-06T10:38:37;3.17;;;0.50;;
22138;SDS011;25815;52.582;13.408;2022-07-06T10:41:03;1.02;;;0.25;;
22138;SDS011;25815;52.582;13.408;2022-07-06T10:46:07;2.88;;;0.40;;
22138;SDS011;25815;52.582;13.408;2022-07-06T10:48:39;2.80;;;0.50;;
22138;SDS011;25815;52.582;13.408;2022-07-06T10:51:06;1.85;;;0.47;;
22138;SDS011;25815;52.582;13.408;2022-07-06T10:53:33;3.20;;;0.43;;
22138;SDS011;25815;52.582;13.408;2022-07-06T10:56:00;2.90;;;0.40;;
22138;SDS011;25815;52.582;13.408;2022-07-06T10:58:41;2.05;;;0.40;;
22138;SDS011;25815;52.582;13.408;2022-07-06T11:01:08;2.53;;;0.30;;
22138;SDS011;25815;52.582;13.408;2022-07-06T11:06:01;3.97;;;0.47;;
22138;SDS011;25815;52.582;13.408;2022-07-06T11:08:40;1.98;;;0.38;;
22138;SDS011;25815;52.582;13.408;2022-07-06T11:11:10;1.70;;;0.95;;
22138;SDS011;25815;52.582;13.408;2022-07-06T11:13:41;3.88;;;0.60;;
22138;SDS011;25815;52.582;13.408;2022-07-06T11:16:07;1.35;;;0.40;;
22138;SDS011;25815;52.582;13.408;2022-07-06T11:18:40;1.58;;;0.50;;
22138;SDS011;25815;52.582;13.408;2022-07-06T11:21:18;1.02;;;0.20;;
22138;SDS011;25815;52.582;13.408;2022-07-06T11:23:45;3.58;;;0.43;;
22138;SDS011;25815;52.582;13.408;2022-07-06T11:26:12;0.82;;;0.32;;
22138;SDS011;25815;52.582;13.408;2022-07-06T11:28:38;1.98;;;0.55;;
22138;SDS011;25815;52.582;13.408;2022-07-06T11:31:04;1.77;;;0.43;;
22138;SDS011;25815;52.582;13.408;2022-07-06T11:33:30;1.95;;;0.47;;
22138;SDS011;25815;52.582;13.408;2022-07-06T11:38:42;1.48;;;0.40;;
22138;SDS011;25815;52.582;13.408;2022-07-06T11:41:08;1.80;;;0.47;;
22138;SDS011;25815;52.582;13.408;2022-07-06T11:43:34;1.23;;;0.40;;
22138;SDS011;25815;52.582;13.408;2022-07-06T11:46:02;3.72;;;0.50;;
22138;SDS011;25815;52.582;13.408;2022-07-06T11:48:28;1.48;;;0.40;;
22138;SDS011;25815;52.582;13.408;2022-07-06T11:51:00;2.95;;;0.30;;
22138;SDS011;25815;52.582;13.408;2022-07-06T11:53:26;2.58;;;0.30;;
22138;SDS011;25815;52.582;13.408;2022-07-06T11:55:52;2.92;;;0.47;;
22138;SDS011;25815;52.582;13.408;2022-07-06T11:58:20;1.63;;;0.40;;
22138;SDS011;25815;52.582;13.408;2022-07-06T12:01:08;2.25;;;0.45;;
22138;SDS011;25815;52.582;13.408;2022-07-06T12:03:34;2.60;;;0.30;;
22138;SDS011;25815;52.582;13.408;2022-07-06T12:06:01;3.10;;;0.20;;
22138;SDS011;25815;52.582;13.408;2022-07-06T12:08:27;2.15;;;0.43;;
22138;SDS011;25815;52.582;13.408;2022-07-06T12:10:53;2.10;;;0.40;;
22138;SDS011;25815;52.582;13.408;2022-07-06T12:13:20;2.10;;;0.50;;
22138;SDS011;25815;52.582;13.408;2022-07-06T12:15:46;2.95;;;0.50;;
22138;SDS011;25815;52.582;13.408;2022-07-06T12:18:12;3.35;;;0.50;;
22138;SDS011;25815;52.582;13.408;2022-07-06T12:20:38;2.55;;;0.50;;
22138;SDS011;25815;52.582;13.408;2022-07-06T12:23:04;4.20;;;0.50;;
22138;SDS011;25815;52.582;13.408;2022-07-06T12:25:33;1.90;;;0.40;;
22138;SDS011;25815;52.582;13.408;2022-07-06T12:30:26;2.92;;;0.50;;
22138;SDS011;25815;52.582;13.408;2022-07-06T12:33:11;2.85;;;0.47;;
22138;SDS011;25815;52.582;13.408;2022-07-06T12:35:38;2.22;;;0.88;;
22138;SDS011;25815;52.582;13.408;2022-07-06T12:38:05;1.33;;;0.63;;
22138;SDS011;25815;52.582;13.408;2022-07-06T12:40:31;2.13;;;0.60;;
22138;SDS011;25815;52.582;13.408;2022-07-06T12:42:57;0.98;;;0.40;;
22138;SDS011;25815;52.582;13.408;2022-07-06T12:45:26;2.38;;;0.32;;
22138;SDS011;25815;52.582;13.408;2022-07-06T12:48:02;1.52;;;0.32;;
22138;SDS011;25815;52.582;13.408;2022-07-06T12:50:33;3.03;;;0.30;;
22138;SDS011;25815;52.582;13.408;2022-07-06T12:52:59;1.63;;;0.40;;
22138;SDS011;25815;52.582;13.408;2022-07-06T12:55:26;1.33;;;0.40;;
22138;SDS011;25815;52.582;13.408;2022-07-06T12:57:52;2.97;;;0.40;;
22138;SDS011;25815;52.582;13.408;2022-07-06T13:00:19;1.33;;;0.43;;
22138;SDS011;25815;52.582;13.408;2022-07-06T13:02:47;1.60;;;0.40;;
22138;SDS011;25815;52.582;13.408;2022-07-06T13:05:14;1.88;;;0.30;;
22138;SDS011;25815;52.582;13.408;2022-07-06T13:07:44;1.98;;;0.30;;
22138;SDS011;25815;52.582;13.408;2022-07-06T13:10:11;2.10;;;0.32;;
22138;SDS011;25815;52.582;13.408;2022-07-06T13:12:38;2.80;;;0.52;;
22138;SDS011;25815;52.582;13.408;2022-07-06T13:15:04;2.17;;;0.45;;
22138;SDS011;25815;52.582;13.408;2022-07-06T13:17:30;1.13;;;0.28;;
22138;SDS011;25815;52.582;13.408;2022-07-06T13:19:56;1.70;;;0.40;;
22138;SDS011;25815;52.582;13.408;2022-07-06T13:22:22;1.35;;;0.30;;
22138;SDS011;25815;52.582;13.408;2022-07-06T13:24:48;1.35;;;0.30;;
22138;SDS011;25815;52.582;13.408;2022-07-06T13:27:14;4.22;;;0.28;;
22138;SDS011;25815;52.582;13.408;2022-07-06T13:29:40;2.67;;;0.10;;
22138;SDS011;25815;52.582;13.408;2022-07-06T13:32:06;4.75;;;0.30;;
22138;SDS011;25815;52.582;13.408;2022-07-06T13:34:33;3.92;;;0.40;;
22138;SDS011;25815;52.582;13.408;2022-07-06T13:37:00;1.30;;;0.20;;
22138;SDS011;25815;52.582;13.408;2022-07-06T13:39:26;5.45;;;0.45;;
22138;SDS011;25815;52.582;13.408;2022-07-06T13:41:52;5.30;;;0.20;;
22138;SDS011;25815;52.582;13.408;2022-07-06T13:44:18;2.67;;;0.32;;
22138;SDS011;25815;52.582;13.408;2022-07-06T13:46:44;5.63;;;0.50;;
22138;SDS011;25815;52.582;13.408;2022-07-06T13:49:10;1.20;;;0.30;;
22138;SDS011;25815;52.582;13.408;2022-07-06T13:51:37;1.83;;;0.30;;
22138;SDS011;25815;52.582;13.408;2022-07-06T13:54:03;3.35;;;0.50;;
22138;SDS011;25815;52.582;13.408;2022-07-06T13:56:29;1.58;;;0.25;;
22138;SDS011;25815;52.582;13.408;2022-07-06T13:58:55;0.65;;;0.20;;
22138;SDS011;25815;52.582;13.408;2022-07-06T14:01:21;3.15;;;0.30;;
22138;SDS011;25815;52.582;13.408;2022-07-06T14:03:47;2.42;;;0.22;;
22138;SDS011;25815;52.582;13.408;2022-07-06T14:06:13;3.03;;;0.30;;
22138;SDS011;25815;52.582;13.408;2022-07-06T14:08:40;1.77;;;0.20;;
22138;SDS011;25815;52.582;13.408;2022-07-06T14:11:06;1.20;;;0.22;;
22138;SDS011;25815;52.582;13.408;2022-07-06T14:13:33;0.85;;;0.30;;
22138;SDS011;25815;52.582;13.408;2022-07-06T14:15:59;0.43;;;0.22;;
22138;SDS011;25815;52.582;13.408;2022-07-06T14:18:25;2.13;;;0.30;;
22138;SDS011;25815;52.582;13.408;2022-07-06T14:20:51;2.40;;;0.60;;
22138;SDS011;25815;52.582;13.408;2022-07-06T14:23:18;3.75;;;0.50;;
22138;SDS011;25815;52.582;13.408;2022-07-06T14:25:44;1.35;;;0.20;;
22138;SDS011;25815;52.582;13.408;2022-07-06T14:28:10;0.88;;;0.30;;
22138;SDS011;25815;52.582;13.408;2022-07-06T14:30:38;1.45;;;0.30;;
22138;SDS011;25815;52.582;13.408;2022-07-06T14:33:08;0.75;;;0.22;;
22138;SDS011;25815;52.582;13.408;2022-07-06T14:35:35;1.67;;;0.25;;
22138;SDS011;25815;52.582;13.408;2022-07-06T14:38:02;2.97;;;0.20;;
22138;SDS011;25815;52.582;13.408;2022-07-06T14:40:28;0.82;;;0.10;;
22138;SDS011;25815;52.582;13.408;2022-07-06T14:42:54;0.70;;;0.20;;
22138;SDS011;25815;52.582;13.408;2022-07-06T14:45:20;1.77;;;0.30;;